createdAt,value
2024-03-13T00:00:43.226Z,2.00
2024-03-13T00:01:43.258Z,2.04
2024-03-13T00:02:43.216Z,1.99
2024-03-13T00:03:43.219Z,1.98
2024-03-13T00:04:44.192Z,1.98
2024-03-13T00:05:43.180Z,1.98
2024-03-13T00:06:43.220Z,2.00
2024-03-13T00:07:43.169Z,2.01
2024-03-13T00:08:43.160Z,2.04
2024-03-13T00:09:43.196Z,2.00
2024-03-13T00:10:43.144Z,1.95
2024-03-13T00:11:43.134Z,2.00
2024-03-13T00:12:43.131Z,2.00
2024-03-13T00:13:43.099Z,1.92
2024-03-13T00:14:43.089Z,1.96
2024-03-13T00:15:43.127Z,1.95
2024-03-13T00:16:43.070Z,1.97
2024-03-13T00:17:43.101Z,1.96
2024-03-13T00:18:43.109Z,1.92
2024-03-13T00:19:43.011Z,1.94
2024-03-13T00:20:43.001Z,1.91
2024-03-13T00:21:43.019Z,1.93
2024-03-13T00:22:42.971Z,1.89
2024-03-13T00:23:44.473Z,1.90
2024-03-13T00:24:42.993Z,1.97
2024-03-13T00:25:42.931Z,1.90
2024-03-13T00:26:42.917Z,1.94
2024-03-13T00:27:42.960Z,1.92
2024-03-13T00:28:42.889Z,1.89
2024-03-13T00:29:42.876Z,1.85
2024-03-13T00:30:43.029Z,1.96
2024-03-13T00:31:42.846Z,1.92
2024-03-13T00:32:42.854Z,1.91
2024-03-13T00:33:42.842Z,1.85
2024-03-13T00:34:42.824Z,1.85
2024-03-13T00:35:42.846Z,1.85
2024-03-13T00:36:42.897Z,1.87
2024-03-13T00:37:42.848Z,1.88
2024-03-13T00:38:42.837Z,1.88
2024-03-13T00:39:42.957Z,1.87
2024-03-13T00:40:42.906Z,1.90
2024-03-13T00:41:42.845Z,1.81
2024-03-13T00:42:42.884Z,1.86
2024-03-13T00:43:42.846Z,1.86
2024-03-13T00:44:42.854Z,1.83
2024-03-13T00:45:42.933Z,1.88
2024-03-13T00:46:42.865Z,1.78
2024-03-13T00:47:42.913Z,1.81
2024-03-13T00:48:43.611Z,1.82
2024-03-13T00:49:42.878Z,1.76
2024-03-13T00:50:42.880Z,1.82
2024-03-13T00:51:42.924Z,1.86
2024-03-13T00:52:42.885Z,1.79
2024-03-13T00:53:42.884Z,1.86
2024-03-13T00:54:42.956Z,1.81
2024-03-13T00:55:42.895Z,1.81
2024-03-13T00:56:42.897Z,1.78
2024-03-13T00:57:43.544Z,1.78
2024-03-13T00:58:42.910Z,1.79
2024-03-13T00:59:42.919Z,1.83
2024-03-13T01:00:42.983Z,1.76
2024-03-13T01:01:42.999Z,1.79
2024-03-13T01:02:42.938Z,1.75
2024-03-13T01:03:42.969Z,1.77
2024-03-13T01:04:42.962Z,1.78
2024-03-13T01:05:42.973Z,1.73
2024-03-13T01:06:43.015Z,1.82
2024-03-13T01:07:42.988Z,1.73
2024-03-13T01:08:42.995Z,1.79
2024-03-13T01:09:42.997Z,1.74
2024-03-13T01:10:43.048Z,1.77
2024-03-13T01:11:43.030Z,1.72
2024-03-13T01:12:43.048Z,1.75
2024-03-13T01:13:43.028Z,1.84
2024-03-13T01:14:43.032Z,1.78
2024-03-13T01:15:43.051Z,1.72
2024-03-13T01:16:43.044Z,1.72
2024-03-13T01:17:43.050Z,1.68
2024-03-13T01:18:43.068Z,1.77
2024-03-13T01:19:43.061Z,1.76
2024-03-13T01:20:43.061Z,1.72
2024-03-13T01:21:43.081Z,1.68
2024-03-13T01:22:43.072Z,1.71
2024-03-13T01:23:43.081Z,1.69
2024-03-13T01:24:43.120Z,1.71
2024-03-13T01:25:43.093Z,1.71
2024-03-13T01:26:43.099Z,1.70
2024-03-13T01:27:43.159Z,1.71
2024-03-13T01:28:43.094Z,1.71
2024-03-13T01:29:43.254Z,1.67
2024-03-13T01:30:45.202Z,1.68
2024-03-13T01:31:43.119Z,1.61
2024-03-13T01:32:43.130Z,1.67
2024-03-13T01:33:43.140Z,1.67
2024-03-13T01:34:43.118Z,1.68
2024-03-13T01:35:43.118Z,1.68
2024-03-13T01:36:43.140Z,1.70
2024-03-13T01:37:43.129Z,1.64
2024-03-13T01:38:43.120Z,1.72
2024-03-13T01:39:43.229Z,1.69
2024-03-13T01:40:43.141Z,1.70
2024-03-13T01:41:43.167Z,1.61
2024-03-13T01:42:43.189Z,1.63
2024-03-13T01:43:43.177Z,1.65
2024-03-13T01:44:43.161Z,1.72
2024-03-13T01:45:43.202Z,1.62
2024-03-13T01:46:43.186Z,1.65
2024-03-13T01:47:43.225Z,1.60
2024-03-13T01:48:43.229Z,1.61
2024-03-13T01:49:43.212Z,1.59
2024-03-13T01:50:43.213Z,1.58
2024-03-13T01:51:43.295Z,1.55
2024-03-13T01:52:43.223Z,1.58
2024-03-13T01:53:43.228Z,1.60
2024-03-13T01:54:43.262Z,1.61
2024-03-13T01:55:43.242Z,1.67
2024-03-13T01:56:43.260Z,1.59
2024-03-13T01:57:43.282Z,1.54
2024-03-13T01:58:43.295Z,1.64
2024-03-13T01:59:43.267Z,1.62
2024-03-13T02:00:43.459Z,1.59
2024-03-13T02:01:43.314Z,1.56
2024-03-13T02:02:43.284Z,1.58
2024-03-13T02:03:43.308Z,1.60
2024-03-13T02:04:43.285Z,1.62
2024-03-13T02:05:43.287Z,1.59
2024-03-13T02:06:43.329Z,1.59
2024-03-13T02:07:43.292Z,1.57
2024-03-13T02:08:43.326Z,1.58
2024-03-13T02:09:43.358Z,1.64
2024-03-13T02:10:43.474Z,1.58
2024-03-13T02:11:43.441Z,1.61
2024-03-13T02:12:43.381Z,1.56
2024-03-13T02:13:43.332Z,1.60
2024-03-13T02:14:43.328Z,1.57
2024-03-13T02:15:43.415Z,1.59
2024-03-13T02:16:43.353Z,1.57
2024-03-13T02:17:43.372Z,1.57
2024-03-13T02:18:43.400Z,1.59
2024-03-13T02:19:43.363Z,1.59
2024-03-13T02:20:43.365Z,1.55
2024-03-13T02:21:43.392Z,1.57
2024-03-13T02:22:43.358Z,1.48
2024-03-13T02:23:43.372Z,1.57
2024-03-13T02:24:43.414Z,1.59
2024-03-13T02:25:43.376Z,1.59
2024-03-13T02:26:43.386Z,1.54
2024-03-13T02:27:43.422Z,1.54
2024-03-13T02:28:43.410Z,1.58
2024-03-13T02:29:43.392Z,1.50
2024-03-13T02:30:43.405Z,1.54
2024-03-13T02:31:43.406Z,1.52
2024-03-13T02:32:43.436Z,1.53
2024-03-13T02:33:43.459Z,1.58
2024-03-13T02:34:43.413Z,1.50
2024-03-13T02:35:43.421Z,1.49
2024-03-13T02:36:43.442Z,1.55
2024-03-13T02:37:43.421Z,1.60
2024-03-13T02:38:43.424Z,1.50
2024-03-13T02:39:43.457Z,1.47
2024-03-13T02:40:43.436Z,1.48
2024-03-13T02:41:43.441Z,1.52
2024-03-13T02:42:43.458Z,1.49
2024-03-13T02:43:43.447Z,1.51
2024-03-13T02:44:43.456Z,1.49
2024-03-13T02:45:43.593Z,1.55
2024-03-13T02:46:43.457Z,1.46
2024-03-13T02:47:43.525Z,1.46
2024-03-13T02:48:43.489Z,1.52
2024-03-13T02:49:43.477Z,1.50
2024-03-13T02:50:43.548Z,1.50
2024-03-13T02:51:43.528Z,1.47
2024-03-13T02:52:43.485Z,1.49
2024-03-13T02:53:43.483Z,1.53
2024-03-13T02:54:43.516Z,1.49
2024-03-13T02:55:43.481Z,1.52
2024-03-13T02:56:43.480Z,1.47
2024-03-13T02:57:43.539Z,1.49
2024-03-13T02:58:43.552Z,1.47
2024-03-13T02:59:43.483Z,1.47
2024-03-13T03:00:43.532Z,1.51
2024-03-13T03:01:43.535Z,1.50
2024-03-13T03:02:43.496Z,1.50
2024-03-13T03:03:43.518Z,1.45
2024-03-13T03:04:43.510Z,1.39
2024-03-13T03:05:43.523Z,1.44
2024-03-13T03:06:43.554Z,1.44
2024-03-13T03:07:43.517Z,1.49
2024-03-13T03:08:43.516Z,1.44
2024-03-13T03:09:43.559Z,1.45
2024-03-13T03:10:43.528Z,1.44
2024-03-13T03:11:43.572Z,1.42
2024-03-13T03:12:43.570Z,1.46
2024-03-13T03:13:43.541Z,1.44
2024-03-13T03:14:43.532Z,1.42
2024-03-13T03:15:43.564Z,1.39
2024-03-13T03:16:43.549Z,1.40
2024-03-13T03:17:43.568Z,1.44
2024-03-13T03:18:43.601Z,1.40
2024-03-13T03:19:43.556Z,1.42
2024-03-13T03:20:43.560Z,1.45
2024-03-13T03:21:43.579Z,1.42
2024-03-13T03:22:43.572Z,1.42
2024-03-13T03:23:43.569Z,1.48
2024-03-13T03:24:43.592Z,1.48
2024-03-13T03:25:43.585Z,1.42
2024-03-13T03:26:43.595Z,1.43
2024-03-13T03:27:43.614Z,1.40
2024-03-13T03:28:43.610Z,1.40
2024-03-13T03:29:43.614Z,1.39
2024-03-13T03:30:43.780Z,1.43
2024-03-13T03:31:43.624Z,1.37
2024-03-13T03:32:43.686Z,1.38
2024-03-13T03:33:43.708Z,1.39
2024-03-13T03:34:43.646Z,1.37
2024-03-13T03:35:43.657Z,1.39
2024-03-13T03:36:43.724Z,1.39
2024-03-13T03:37:43.674Z,1.38
2024-03-13T03:38:43.676Z,1.39
2024-03-13T03:39:43.869Z,1.37
2024-03-13T03:40:43.688Z,1.42
2024-03-13T03:41:43.710Z,1.44
2024-03-13T03:42:43.732Z,1.34
2024-03-13T03:43:43.711Z,1.35
2024-03-13T03:44:43.720Z,1.41
2024-03-13T03:45:43.880Z,1.41
2024-03-13T03:46:43.735Z,1.35
2024-03-13T03:47:43.814Z,1.37
2024-03-13T03:48:43.842Z,1.36
2024-03-13T03:49:43.757Z,1.31
2024-03-13T03:50:43.766Z,1.36
2024-03-13T03:51:43.808Z,1.35
2024-03-13T03:52:43.780Z,1.41
2024-03-13T03:53:43.788Z,1.43
2024-03-13T03:54:43.858Z,1.35
2024-03-13T03:55:43.792Z,1.34
2024-03-13T03:56:44.821Z,1.35
2024-03-13T03:57:43.815Z,1.36
2024-03-13T03:58:43.798Z,1.35
2024-03-13T03:59:43.804Z,1.37
2024-03-13T04:00:43.859Z,1.36
2024-03-13T04:01:43.887Z,1.34
2024-03-13T04:02:43.845Z,1.32
2024-03-13T04:03:43.972Z,1.35
2024-03-13T04:04:43.829Z,1.33
2024-03-13T04:05:43.836Z,1.32
2024-03-13T04:06:43.849Z,1.31
2024-03-13T04:07:43.857Z,1.25
2024-03-13T04:08:43.875Z,1.34
2024-03-13T04:09:43.896Z,1.31
2024-03-13T04:10:43.892Z,1.27
2024-03-13T04:11:43.911Z,1.32
2024-03-13T04:12:43.980Z,1.32
2024-03-13T04:13:43.918Z,1.31
2024-03-13T04:14:43.912Z,1.31
2024-03-13T04:15:44.017Z,1.28
2024-03-13T04:16:43.927Z,1.32
2024-03-13T04:17:43.933Z,1.33
2024-03-13T04:18:44.000Z,1.31
2024-03-13T04:19:43.955Z,1.28
2024-03-13T04:20:43.965Z,1.27
2024-03-13T04:21:44.112Z,1.30
2024-03-13T04:22:43.981Z,1.26
2024-03-13T04:23:43.981Z,1.29
2024-03-13T04:24:44.212Z,1.28
2024-03-13T04:25:44.035Z,1.32
2024-03-13T04:26:44.012Z,1.33
2024-03-13T04:27:44.056Z,1.25
2024-03-13T04:28:44.029Z,1.28
2024-03-13T04:29:48.334Z,1.30
2024-03-13T04:30:44.037Z,1.30
2024-03-13T04:31:44.027Z,1.29
2024-03-13T04:32:44.071Z,1.27
2024-03-13T04:33:44.032Z,1.27
2024-03-13T04:34:44.052Z,1.27
2024-03-13T04:35:43.985Z,1.32
2024-03-13T04:36:44.003Z,1.28
2024-03-13T04:37:43.979Z,1.26
2024-03-13T04:38:43.967Z,1.29
2024-03-13T04:39:43.965Z,1.22
2024-03-13T04:40:43.946Z,1.29
2024-03-13T04:41:43.942Z,1.29
2024-03-13T04:42:43.927Z,1.22
2024-03-13T04:43:43.935Z,1.28
2024-03-13T04:44:43.924Z,1.24
2024-03-13T04:45:43.927Z,1.24
2024-03-13T04:46:43.926Z,1.20
2024-03-13T04:47:44.003Z,1.23
2024-03-13T04:48:43.916Z,1.23
2024-03-13T04:49:43.898Z,1.25
2024-03-13T04:50:43.895Z,1.23
2024-03-13T04:51:43.896Z,1.21
2024-03-13T04:52:43.895Z,1.24
2024-03-13T04:53:43.888Z,1.21
2024-03-13T04:54:43.891Z,1.27
2024-03-13T04:55:43.888Z,1.26
2024-03-13T04:56:43.875Z,1.21
2024-03-13T04:57:43.870Z,1.22
2024-03-13T04:58:51.241Z,0.50
2024-03-13T04:59:51.245Z,0.50
2024-03-13T05:00:51.359Z,0.50
2024-03-13T05:02:51.310Z,0.50
2024-03-13T05:03:51.364Z,0.52
2024-03-13T05:04:51.337Z,0.52
2024-03-13T05:05:51.366Z,0.51
2024-03-13T05:06:51.408Z,0.50
2024-03-13T05:07:54.339Z,0.52
2024-03-13T05:08:51.425Z,0.52
2024-03-13T05:09:51.452Z,0.52
2024-03-13T05:10:51.497Z,0.50
2024-03-13T05:11:51.487Z,0.50
2024-03-13T05:12:51.519Z,0.53
2024-03-13T05:13:51.538Z,0.50
2024-03-13T05:14:51.554Z,0.52
2024-03-13T05:15:51.616Z,0.52
2024-03-13T05:16:51.581Z,0.51
2024-03-13T05:17:51.614Z,0.51
2024-03-13T05:18:51.653Z,0.54
2024-03-13T05:19:51.634Z,0.53
2024-03-13T05:20:51.695Z,0.53
2024-03-13T05:21:51.679Z,0.52
2024-03-13T05:22:51.682Z,0.53
2024-03-13T05:23:51.702Z,0.53
2024-03-13T05:24:51.754Z,0.51
2024-03-13T05:25:52.219Z,0.53
2024-03-13T05:26:51.764Z,0.52
2024-03-13T05:27:51.814Z,0.51
2024-03-13T05:28:51.797Z,0.52
2024-03-13T05:29:51.811Z,0.53
2024-03-13T05:30:51.872Z,0.52
2024-03-13T05:31:51.903Z,0.53
2024-03-13T05:32:51.921Z,0.51
2024-03-13T05:33:51.922Z,0.52
2024-03-13T05:34:51.935Z,0.52
2024-03-13T05:35:52.023Z,0.51
2024-03-13T05:36:52.162Z,0.53
2024-03-13T05:37:52.199Z,0.51
2024-03-13T05:38:52.296Z,0.52
2024-03-13T05:39:52.382Z,0.52
2024-03-13T05:40:52.453Z,0.53
2024-03-13T05:41:52.540Z,0.53
2024-03-13T05:42:52.662Z,0.52
2024-03-13T05:43:52.727Z,0.52
2024-03-13T05:44:52.809Z,0.53
2024-03-13T05:45:52.899Z,0.53
2024-03-13T05:46:52.982Z,0.52
2024-03-13T05:47:53.162Z,0.52
2024-03-13T05:48:53.170Z,0.51
2024-03-13T05:49:53.239Z,0.52
2024-03-13T05:50:53.329Z,0.52
2024-03-13T05:51:53.457Z,0.53
2024-03-13T05:52:53.497Z,0.53
2024-03-13T05:53:53.566Z,0.52
2024-03-13T05:54:53.669Z,0.53
2024-03-13T05:55:53.732Z,0.52
2024-03-13T05:56:53.815Z,0.52
2024-03-13T05:57:53.934Z,0.51
2024-03-13T05:58:53.986Z,0.51
2024-03-13T05:59:54.056Z,0.52
2024-03-13T06:00:54.186Z,0.54
2024-03-13T06:01:54.290Z,0.53
2024-03-13T06:02:54.323Z,0.54
2024-03-13T06:03:54.473Z,0.54
2024-03-13T06:04:54.495Z,0.51
2024-03-13T06:05:54.582Z,0.55
2024-03-13T06:06:54.693Z,0.52
2024-03-13T06:07:54.759Z,0.53
2024-03-13T06:08:54.928Z,0.52
2024-03-13T06:09:54.957Z,0.54
2024-03-13T06:10:55.103Z,0.52
2024-03-13T06:11:55.103Z,0.51
2024-03-13T06:12:55.217Z,0.53
2024-03-13T06:13:55.279Z,0.52
2024-03-13T06:14:55.372Z,0.55
2024-03-13T06:15:55.580Z,0.51
2024-03-13T06:16:56.338Z,0.52
2024-03-13T06:17:56.372Z,0.54
2024-03-13T06:18:55.717Z,0.51
2024-03-13T06:19:55.783Z,0.51
2024-03-13T06:20:55.877Z,0.52
2024-03-13T06:21:56.885Z,0.51
2024-03-13T06:22:56.039Z,0.55
2024-03-13T06:23:56.119Z,0.53
2024-03-13T06:24:56.247Z,0.52
2024-03-13T06:25:56.279Z,0.52
2024-03-13T06:26:56.366Z,0.55
2024-03-13T06:27:56.461Z,0.53
2024-03-13T06:28:56.530Z,0.52
2024-03-13T06:29:56.604Z,0.54
2024-03-13T06:30:56.707Z,0.54
2024-03-13T06:31:56.784Z,0.55
2024-03-13T06:32:56.941Z,0.52
2024-03-13T06:33:57.816Z,0.53
2024-03-13T06:34:57.072Z,0.51
2024-03-13T06:35:57.120Z,0.52
2024-03-13T06:36:57.304Z,0.53
2024-03-13T06:37:57.298Z,0.51
2024-03-13T06:38:57.374Z,0.50
2024-03-13T06:39:57.495Z,0.52
2024-03-13T06:40:57.627Z,0.52
2024-03-13T06:41:57.644Z,0.54
2024-03-13T06:42:57.751Z,0.53
2024-03-13T06:43:58.818Z,0.50
2024-03-13T06:44:57.911Z,0.52
2024-03-13T06:45:58.060Z,0.53
2024-03-13T06:46:58.850Z,0.51
2024-03-13T06:47:58.230Z,0.51
2024-03-13T06:48:58.286Z,0.51
2024-03-13T06:49:58.349Z,0.52
2024-03-13T06:50:58.441Z,0.53
2024-03-13T06:51:58.572Z,0.51
2024-03-13T06:52:58.615Z,0.51
2024-03-13T06:53:58.700Z,0.52
2024-03-13T06:54:58.830Z,0.53
2024-03-13T06:55:58.865Z,0.52
2024-03-13T06:56:58.943Z,0.53
2024-03-13T06:57:59.185Z,0.53
2024-03-13T06:58:59.123Z,0.53
2024-03-13T07:00:00.203Z,0.52
2024-03-13T07:00:59.385Z,0.51
2024-03-13T07:01:59.451Z,0.51
2024-03-13T07:02:59.457Z,0.53
2024-03-13T07:03:59.545Z,0.54
2024-03-13T07:04:59.619Z,0.54
2024-03-13T07:05:59.745Z,0.54
2024-03-13T07:06:59.856Z,0.55
2024-03-13T07:08:00.783Z,0.54
2024-03-13T07:08:59.998Z,0.52
2024-03-13T07:10:00.218Z,0.51
2024-03-13T07:11:00.191Z,0.52
2024-03-13T07:12:00.788Z,0.52
2024-03-13T07:13:00.410Z,0.53
2024-03-13T07:14:00.416Z,0.52
2024-03-13T07:15:00.525Z,0.53
2024-03-13T07:16:00.606Z,0.54
2024-03-13T07:17:00.680Z,0.54
2024-03-13T07:18:00.797Z,0.57
2024-03-13T07:19:01.128Z,0.55
2024-03-13T07:20:01.878Z,0.55
2024-03-13T07:21:01.015Z,0.56
2024-03-13T07:22:01.120Z,0.57
2024-03-13T07:23:01.182Z,0.59
2024-03-13T07:24:01.256Z,0.59
2024-03-13T07:25:01.356Z,0.63
2024-03-13T07:26:02.316Z,0.62
2024-03-13T07:27:01.500Z,0.64
2024-03-13T07:28:01.598Z,0.62
2024-03-13T07:29:02.313Z,0.63
2024-03-13T07:30:01.738Z,0.66
2024-03-13T07:31:01.855Z,0.65
2024-03-13T07:32:01.878Z,0.70
2024-03-13T07:33:01.960Z,0.69
2024-03-13T07:34:02.049Z,0.73
2024-03-13T07:35:02.104Z,0.74
2024-03-13T07:36:02.168Z,0.75
2024-03-13T07:37:02.907Z,0.75
2024-03-13T07:38:02.404Z,0.76
2024-03-13T07:39:02.384Z,0.78
2024-03-13T07:40:02.489Z,0.79
2024-03-13T07:41:02.528Z,0.78
2024-03-13T07:42:02.609Z,0.81
2024-03-13T07:43:03.336Z,0.81
2024-03-13T07:44:02.741Z,0.83
2024-03-13T07:45:02.813Z,0.84
2024-03-13T07:46:03.915Z,0.84
2024-03-13T07:47:02.958Z,0.86
2024-03-13T07:48:03.113Z,0.85
2024-03-13T07:49:03.229Z,0.85
2024-03-13T07:50:03.162Z,0.89
2024-03-13T07:51:03.214Z,0.88
2024-03-13T07:52:03.327Z,0.94
2024-03-13T07:53:03.353Z,0.92
2024-03-13T07:54:03.400Z,0.94
2024-03-13T07:55:03.518Z,1.00
2024-03-13T07:56:03.755Z,1.02
2024-03-13T07:57:03.610Z,1.06
2024-03-13T07:58:03.747Z,1.13
2024-03-13T07:59:03.723Z,1.14
2024-03-13T08:00:03.799Z,1.17
2024-03-13T08:01:03.957Z,1.19
2024-03-13T08:02:04.137Z,1.24
2024-03-13T08:03:03.967Z,1.29
2024-03-13T08:04:04.118Z,1.33
2024-03-13T08:05:04.086Z,1.39
2024-03-13T09:06:08.584Z,1.47
2024-03-13T09:07:05.448Z,1.71
2024-03-13T09:08:05.484Z,1.64
2024-03-13T09:09:04.487Z,2.45
2024-03-13T09:10:04.495Z,4.32
2024-03-13T09:11:05.596Z,1.59
2024-03-13T09:12:04.545Z,2.14
2024-03-13T09:13:04.516Z,3.32
2024-03-13T09:14:04.527Z,5.80
2024-03-13T09:15:05.386Z,11.33
2024-03-13T09:16:04.586Z,10.78
2024-03-13T09:17:04.613Z,9.63
2024-03-13T09:18:04.641Z,8.56
2024-03-13T09:19:04.626Z,7.84
2024-03-13T09:20:04.597Z,7.43
2024-03-13T09:21:04.792Z,7.01
2024-03-13T09:22:06.749Z,6.73
2024-03-13T09:23:04.646Z,6.55
2024-03-13T09:24:04.708Z,6.13
2024-03-13T09:25:04.665Z,5.97
2024-03-13T09:26:04.691Z,5.60
2024-03-13T09:27:04.710Z,5.40
2024-03-13T09:28:04.703Z,5.23
2024-03-13T09:29:04.737Z,4.93
2024-03-13T09:30:04.790Z,4.73
2024-03-13T09:31:04.754Z,4.57
2024-03-13T09:32:04.778Z,4.50
2024-03-13T09:33:04.870Z,4.41
2024-03-13T09:34:04.878Z,4.31
2024-03-13T09:35:04.815Z,4.14
2024-03-13T09:36:04.877Z,4.04
2024-03-13T09:37:04.852Z,4.01
2024-03-13T09:38:04.860Z,3.97
2024-03-13T09:39:05.003Z,3.80
2024-03-13T09:40:04.901Z,3.76
2024-03-13T09:41:04.930Z,3.68
2024-03-13T09:42:04.979Z,3.57
2024-03-13T09:43:04.965Z,3.34
2024-03-13T09:44:04.956Z,3.29
2024-03-13T09:45:05.035Z,3.11
2024-03-13T09:46:05.002Z,3.06
2024-03-13T09:47:05.036Z,2.95
2024-03-13T09:48:05.085Z,2.95
2024-03-13T09:49:05.140Z,2.95
2024-03-13T09:50:05.063Z,2.82
2024-03-13T09:51:07.862Z,2.79
2024-03-13T09:52:05.092Z,2.80
2024-03-13T09:53:05.103Z,2.80
2024-03-13T09:54:06.157Z,2.80
2024-03-13T09:55:05.922Z,2.80
2024-03-13T09:56:05.272Z,2.73
2024-03-13T09:57:05.253Z,2.69
2024-03-13T09:58:05.179Z,2.61
2024-03-13T09:59:06.946Z,2.65
2024-03-13T10:00:05.228Z,2.52
2024-03-13T10:01:05.320Z,2.54
2024-03-13T10:02:05.266Z,2.46
2024-03-13T10:03:05.378Z,2.45
2024-03-13T10:04:05.264Z,2.39
2024-03-13T10:05:05.283Z,2.34
2024-03-13T10:06:05.328Z,2.32
2024-03-13T10:07:05.339Z,2.29
2024-03-13T10:08:05.335Z,2.29
2024-03-13T10:09:05.404Z,2.23
2024-03-13T10:10:05.350Z,2.16
2024-03-13T10:11:05.376Z,2.18
2024-03-13T10:12:05.526Z,2.09
2024-03-13T10:13:05.427Z,2.09
2024-03-13T10:14:05.423Z,2.07
2024-03-13T10:15:06.527Z,2.04
2024-03-13T10:16:05.440Z,2.04
2024-03-13T10:17:05.620Z,2.05
2024-03-13T10:18:08.438Z,2.08
2024-03-13T10:19:05.520Z,2.04
2024-03-13T10:20:05.508Z,2.07
2024-03-13T10:21:07.397Z,2.12
2024-03-13T10:22:05.567Z,2.20
2024-03-13T10:23:05.567Z,2.36
2024-03-13T10:24:07.687Z,2.40
2024-03-13T10:25:05.627Z,2.40
2024-03-13T10:26:05.668Z,2.34
2024-03-13T10:27:05.759Z,2.43
2024-03-13T10:28:05.726Z,2.40
2024-03-13T10:29:05.808Z,2.42
2024-03-13T10:30:05.915Z,2.37
2024-03-13T10:31:06.529Z,2.35
2024-03-13T10:32:05.991Z,2.40
2024-03-13T10:33:05.984Z,2.32
2024-03-13T10:34:07.032Z,2.33
2024-03-13T10:35:05.946Z,2.33
2024-03-13T10:36:05.983Z,2.31
2024-03-13T10:37:10.969Z,2.31
2024-03-13T10:38:07.002Z,2.33
2024-03-13T10:39:06.059Z,2.17
2024-03-13T10:40:06.038Z,2.10
2024-03-13T10:41:06.044Z,1.99
2024-03-13T10:42:06.107Z,1.81
2024-03-13T10:43:06.865Z,1.66
2024-03-13T10:44:06.942Z,1.50
2024-03-13T10:45:06.180Z,1.35
2024-03-13T10:46:06.112Z,1.25
2024-03-13T10:47:06.215Z,1.12
2024-03-13T10:48:06.214Z,1.12
2024-03-13T10:49:06.191Z,1.12
2024-03-13T10:50:06.199Z,1.02
2024-03-13T10:51:06.199Z,0.91
2024-03-13T10:52:06.202Z,0.78
2024-03-13T10:53:06.263Z,0.68
2024-03-13T10:54:06.980Z,0.58
2024-03-13T10:55:06.406Z,0.51
2024-03-13T10:56:06.936Z,0.48
2024-03-13T10:57:06.510Z,0.50
2024-03-13T10:58:06.428Z,0.50
2024-03-13T10:59:09.494Z,0.52
2024-03-13T11:00:06.529Z,0.48
2024-03-13T11:01:06.580Z,0.44
2024-03-13T11:02:06.539Z,0.45
2024-03-13T11:03:06.588Z,0.43
2024-03-13T11:04:07.730Z,0.41
2024-03-13T11:05:06.623Z,0.39
2024-03-13T11:06:06.756Z,0.36
2024-03-13T11:07:06.618Z,0.34
2024-03-13T11:08:06.693Z,0.30
2024-03-13T11:09:06.790Z,0.35
2024-03-13T11:10:06.652Z,0.41
2024-03-13T11:11:14.190Z,0.49
2024-03-13T11:12:07.726Z,0.49
2024-03-13T11:13:07.571Z,0.46
2024-03-13T11:14:06.762Z,0.48
2024-03-13T11:15:06.774Z,0.44
2024-03-13T11:16:06.737Z,0.44
2024-03-13T11:17:06.766Z,0.52
2024-03-13T11:18:07.127Z,0.51
2024-03-13T11:19:06.862Z,0.51
2024-03-13T11:20:06.850Z,0.51
2024-03-13T11:21:06.874Z,0.51
2024-03-13T11:22:06.849Z,0.53
2024-03-13T11:23:06.853Z,0.50
2024-03-13T11:24:06.901Z,0.50
2024-03-13T11:25:06.875Z,0.50
2024-03-13T11:26:06.879Z,0.51
2024-03-13T11:27:06.993Z,0.51
2024-03-13T11:28:06.921Z,0.53
2024-03-13T11:29:06.945Z,0.51
2024-03-13T11:30:06.963Z,0.50
2024-03-13T11:31:06.939Z,0.52
2024-03-13T11:32:09.956Z,0.52
2024-03-13T11:33:07.046Z,0.51
2024-03-13T11:34:07.004Z,0.51
2024-03-13T11:35:07.093Z,0.52
2024-03-13T11:36:07.059Z,0.51
2024-03-13T11:37:07.037Z,0.51
2024-03-13T11:38:07.057Z,0.51
2024-03-13T11:39:07.895Z,0.52
2024-03-13T11:40:07.967Z,0.51
2024-03-13T11:41:07.087Z,0.52
2024-03-13T11:42:07.212Z,0.50
2024-03-13T11:43:10.627Z,0.51
2024-03-13T11:44:07.140Z,0.51
2024-03-13T11:45:07.176Z,0.51
2024-03-13T11:46:07.192Z,0.50
2024-03-13T11:47:07.194Z,0.50
2024-03-13T11:48:07.277Z,0.50
2024-03-13T11:49:10.441Z,0.52
2024-03-13T11:50:07.253Z,0.52
2024-03-13T11:51:07.360Z,0.53
2024-03-13T11:52:07.284Z,0.51
2024-03-13T11:53:07.322Z,0.53
2024-03-13T11:54:07.360Z,0.53
2024-03-13T11:55:07.872Z,0.53
2024-03-13T11:56:07.413Z,0.55
2024-03-13T11:57:07.443Z,0.54
2024-03-13T11:58:07.396Z,0.54
2024-03-13T11:59:07.413Z,0.54
2024-03-13T12:00:07.508Z,0.54
2024-03-13T12:01:10.542Z,0.53
2024-03-13T12:02:07.474Z,0.52
2024-03-13T12:03:07.538Z,0.53
2024-03-13T12:04:07.537Z,0.53
2024-03-13T12:05:07.771Z,0.53
2024-03-13T12:06:07.678Z,0.52
2024-03-13T12:07:07.651Z,0.55
2024-03-13T12:08:08.398Z,0.56
2024-03-13T12:09:07.677Z,0.57
2024-03-13T12:10:07.651Z,0.58
2024-03-13T12:11:07.859Z,0.59
2024-03-13T12:12:07.845Z,0.60
2024-03-13T12:13:09.359Z,0.59
2024-03-13T12:14:07.732Z,0.59
2024-03-13T12:15:07.915Z,0.59
2024-03-13T12:16:07.762Z,0.61
2024-03-13T12:17:07.800Z,0.62
2024-03-13T12:18:07.858Z,0.64
2024-03-13T12:19:10.749Z,0.67
2024-03-13T12:20:07.937Z,0.67
2024-03-13T12:21:07.909Z,0.67
2024-03-13T12:22:07.931Z,0.68
2024-03-13T12:23:07.925Z,0.70
2024-03-13T12:24:07.949Z,0.74
2024-03-13T12:25:11.458Z,0.76
2024-03-13T12:26:07.976Z,0.77
2024-03-13T12:27:08.017Z,0.77
2024-03-13T12:28:07.983Z,0.79
2024-03-13T12:29:08.048Z,0.83
2024-03-13T12:30:08.114Z,0.90
2024-03-13T12:31:11.505Z,0.94
2024-03-13T12:32:08.039Z,0.94
2024-03-13T12:33:08.346Z,0.95
2024-03-13T12:34:08.170Z,0.96
2024-03-13T12:35:08.092Z,1.01
2024-03-13T12:36:08.425Z,1.06
2024-03-13T12:37:11.031Z,1.11
2024-03-13T12:38:08.151Z,1.11
2024-03-13T12:39:08.213Z,1.11
2024-03-13T12:40:08.192Z,1.13
2024-03-13T12:41:08.204Z,1.18
2024-03-13T12:42:08.250Z,1.26
2024-03-13T12:43:08.293Z,1.29
2024-03-13T12:44:08.284Z,1.33
2024-03-13T12:45:08.337Z,1.38
2024-03-13T12:46:08.291Z,1.45
2024-03-13T12:47:08.304Z,1.50
2024-03-13T12:48:08.373Z,1.57
2024-03-13T12:49:09.808Z,1.69
2024-03-13T12:50:08.537Z,1.70
2024-03-13T12:51:08.657Z,1.72
2024-03-13T12:52:08.594Z,1.79
2024-03-13T12:53:08.623Z,1.92
2024-03-13T12:54:08.700Z,2.12
2024-03-13T12:55:08.731Z,2.19
2024-03-13T12:56:08.724Z,2.27
2024-03-13T12:57:08.895Z,2.31
2024-03-13T12:58:09.497Z,2.41
2024-03-13T12:59:08.854Z,2.43
2024-03-13T13:00:08.982Z,2.50
2024-03-13T13:01:08.971Z,2.53
2024-03-13T13:02:09.004Z,2.49
2024-03-13T13:03:09.072Z,2.37
2024-03-13T13:04:09.104Z,2.37
2024-03-13T13:05:09.151Z,2.40
2024-03-13T13:06:09.226Z,2.33
2024-03-13T13:07:09.271Z,2.48
2024-03-13T13:08:09.292Z,2.50
2024-03-13T13:09:09.459Z,2.58
2024-03-13T13:10:09.379Z,2.72
2024-03-13T13:11:09.452Z,2.78
2024-03-13T13:12:09.474Z,2.88
2024-03-13T13:13:09.507Z,3.01
2024-03-13T13:14:09.537Z,3.16
2024-03-13T13:15:09.619Z,3.29
2024-03-13T13:16:09.627Z,3.45
2024-03-13T13:17:09.732Z,3.66
2024-03-13T13:18:09.777Z,3.82
2024-03-13T13:19:09.804Z,3.96
2024-03-13T13:20:09.785Z,3.85
2024-03-13T13:21:09.860Z,3.84
2024-03-13T13:22:09.881Z,3.94
2024-03-13T13:23:09.916Z,4.07
2024-03-13T13:24:09.987Z,4.29
2024-03-13T13:25:10.005Z,4.58
2024-03-13T13:26:10.007Z,4.82
2024-03-13T13:27:10.113Z,4.91
2024-03-13T13:28:10.047Z,5.33
2024-03-13T13:29:10.069Z,5.58
2024-03-13T13:30:10.084Z,5.94
2024-03-13T13:31:10.099Z,6.27
2024-03-13T13:32:10.164Z,6.73
2024-03-13T13:33:10.175Z,7.10
2024-03-13T13:34:10.132Z,7.36
2024-03-13T13:35:11.057Z,7.50
2024-03-13T13:36:10.227Z,8.02
2024-03-13T13:37:10.225Z,8.40
2024-03-13T13:38:10.235Z,8.59
2024-03-13T13:39:10.402Z,8.85
2024-03-13T13:40:10.310Z,9.28
2024-03-13T13:41:11.533Z,9.20
2024-03-13T13:42:10.494Z,9.55
2024-03-13T13:43:10.682Z,9.78
2024-03-13T13:44:10.511Z,9.84
2024-03-13T13:45:10.580Z,10.07
2024-03-13T13:46:10.594Z,9.91
2024-03-13T13:47:10.684Z,10.07
2024-03-13T13:48:11.225Z,10.24
2024-03-13T13:49:10.822Z,10.28
2024-03-13T13:50:10.680Z,10.20
2024-03-13T13:51:10.766Z,10.56
2024-03-13T13:52:10.716Z,10.45
2024-03-13T13:53:11.532Z,10.53
2024-03-13T13:54:10.816Z,10.84
2024-03-13T13:55:10.782Z,10.81
2024-03-13T13:56:10.830Z,10.81
2024-03-13T13:57:10.885Z,10.80
2024-03-13T13:58:10.839Z,10.84
2024-03-13T13:59:10.853Z,10.63
2024-03-13T14:00:10.894Z,10.69
2024-03-13T14:01:10.886Z,10.42
2024-03-13T14:02:10.930Z,10.58
2024-03-13T14:03:10.951Z,10.34
2024-03-13T14:04:11.941Z,10.37
2024-03-13T14:05:10.973Z,10.35
2024-03-13T14:06:11.042Z,10.05
2024-03-13T14:07:10.991Z,10.06
2024-03-13T14:08:11.017Z,9.52
2024-03-13T14:09:11.058Z,9.33
2024-03-13T14:10:11.017Z,9.55
2024-03-13T14:11:11.051Z,9.39
2024-03-13T14:12:11.169Z,9.09
2024-03-13T14:13:11.102Z,9.07
2024-03-13T14:14:11.103Z,8.80
2024-03-13T14:15:11.293Z,8.78
2024-03-13T14:16:11.221Z,8.82
2024-03-13T14:17:11.176Z,8.77
2024-03-13T14:18:11.367Z,8.89
2024-03-13T14:19:11.301Z,8.73